Latest Coastal Weather Observations for Learmonth

IDW60701

Issued at 11:12 pm WST Thursday 11 February 2016 (issued every 10 minutes, with the page automatically refreshed every 10 minutes)

About coastal observations | Map of coastal stations | Coastal observations for WA | Marine services | Other Formats
Station Details ID: 005007 Name: LEARMONTH AIRPORT Lat: -22.24 Lon: 114.10 Height: 5.0 m
Data from the previous 72 hours. | See also: Recent months at Learmonth
Date/Time
WST
Temp

°C
Wind Pressure Rain
since 9am
mm
Weather Cloud Vis
km
Sea
Height
m
Swell
Dir
 
Speed
knots
Gust
knots
hPa Trend Height
m
Period
s
Dir
11/11:00pm 27.6 WSW 9 11 1008.8 - 0.0 - - 10 - - - -
11/10:30pm 27.7 SW 9 12 1009.1 - 0.0 - - 10 - - - -
11/10:00pm 28.0 SW 10 13 1009.2 - 0.0 - - 10 - - - -
11/09:30pm 28.3 SW 14 18 1009.0 - 0.0 - - 10 - - - -
11/09:00pm 28.8 SW 14 17 1008.6 - 0.0 - - 10 - - - -
11/08:30pm 29.7 SW 11 13 1008.2 - 0.0 - - 10 - - - -
11/08:00pm 30.4 SW 10 13 1008.2 - 0.0 - - 10 - - - -
11/07:30pm 31.7 SW 10 13 1007.7 - 0.0 - - 10 - - - -
11/07:00pm 33.4 W 13 16 1007.1 - 0.0 - - 10 - - - -
11/06:30pm 36.5 W 11 14 1006.6 - 0.0 - - 10 - - - -
11/06:00pm 37.5 W 11 14 1006.3 - 0.0 - - 10 - - - -
11/05:30pm 40.1 W 12 15 1006.0 - 0.0 - - 10 - - - -
11/05:00pm 42.2 W 11 15 1005.5 - 0.0 - - 10 - - - -
11/04:30pm 43.1 WNW 10 14 1005.4 - 0.0 - - 10 - - - -
11/04:00pm 43.6 N 9 12 1005.6 - 0.0 - - 10 - - - -
11/03:30pm 42.4 N 6 8 1005.9 - 0.0 - - 10 - - - -
11/03:00pm 40.3 NNE 5 8 1006.2 R 0.0 Fine Mostly clear 30 - - - -
11/02:30pm 37.9 NNE 7 9 1006.7 - 0.0 - - 10 - - - -
11/02:00pm 36.7 NE 8 11 1006.9 - 0.0 - - 10 - - - -
11/01:30pm 37.1 NE 7 11 1007.1 - 0.0 - - 10 - - - -
11/01:00pm 36.2 NE 8 11 1007.3 - 0.0 - - 10 - - - -
11/12:30pm 36.0 ENE 9 11 1007.6 - 0.0 - - 10 - - - -
11/12:00pm 35.2 E 13 15 1007.6 F 0.0 Fine Mostly clear 30 - - - -
11/11:30am 35.2 E 12 15 1007.9 - 0.0 - - 10 - - - -
11/11:00am 35.1 E 9 13 1008.3 - 0.0 - - 10 - - - -
11/10:30am 36.7 SSE 5 9 1008.7 - 0.0 - - 10 - - - -
11/10:00am 35.6 S 6 10 1009.0 - 0.0 - - 10 - - - -
11/09:30am 33.9 SSW 7 11 1009.2 - 0.0 - - 10 - - - -
11/09:00am 32.7 S 10 13 1009.1 R 0.0 Fine Clear 25 - - - -
11/08:30am 30.9 SW 11 15 1009.3 - 0.0 - - 10 - - - -
11/08:00am 29.4 SW 10 13 1009.3 - 0.0 - - 10 - - - -
11/07:30am 27.7 SW 10 14 1009.5 - 0.0 - - 10 - - - -
11/07:00am 25.2 SSW 9 12 1009.1 - 0.0 - - 10 - - - -
11/06:30am 24.0 SSE 7 9 1009.0 - 0.0 - - 10 - - - -
11/06:00am 24.3 SSW 8 9 1008.0 R 0.0 Haze Mostly clear 20 - - - -
11/05:30am 24.5 S 6 8 1008.0 - 0.0 - - 10 - - - -
11/05:00am 24.7 SSW 5 8 1007.8 - 0.0 - - 10 - - - -
11/04:30am 24.7 SW 9 10 1007.7 - 0.0 - - 10 - - - -
11/04:00am 24.5 SSW 7 7 1007.5 - 0.0 - - 10 - - - -
11/03:30am 27.4 WSW 3 4 1007.3 - 0.0 - - 10 - - - -
11/03:00am 27.9 WSW 7 9 1007.0 - 0.0 - - 10 - - - -
11/02:30am 28.4 NW 7 8 1007.1 - 0.0 - - 10 - - - -
11/02:00am 26.0 WSW 5 6 1007.1 - 0.0 - - 10 - - - -
11/01:30am 26.6 SSW 10 11 1007.1 - 0.0 - - 10 - - - -
11/01:00am 25.6 SSW 8 10 1007.2 - 0.0 - - 10 - - - -
11/12:30am 25.8 SSW 8 10 1007.5 - 0.0 - - 10 - - - -
11/12:00am 25.6 SSW 9 10 1007.7 - 0.0 - - 10 - - - -
 
Date/Time
WST
Temp

°C
Wind Pressure Rain
since 9am
mm
Weather Cloud Vis
km
Sea
Height
m
Swell
Dir
 
Speed
knots
Gust
knots
hPa Trend Height
m
Period
s
Dir
10/11:30pm 25.8 S 8 10 1008.3 - 0.0 - - 10 - - - -
10/11:00pm 26.5 SSW 7 8 1008.5 - 0.0 - - 10 - - - -
10/10:30pm 28.1 SSW 7 9 1008.6 - 0.0 - - 10 - - - -
10/10:00pm 29.0 SW 11 13 1008.8 - 0.0 - - 10 - - - -
10/09:30pm 29.0 SSW 11 15 1008.8 - 0.0 - - 10 - - - -
10/09:00pm 29.9 SSW 14 17 1008.4 - 0.0 - - 10 - - - -
10/08:30pm 30.4 SW 9 11 1008.4 - 0.0 - - 10 - - - -
10/08:00pm 31.3 SSW 11 12 1008.3 - 0.0 - - 10 - - - -
10/07:30pm 33.0 WSW 8 10 1008.1 - 0.0 - - 10 - - - -
10/07:00pm 34.9 WSW 10 13 1007.8 - 0.0 - - 10 - - - -
10/06:30pm 37.2 W 12 16 1007.3 - 0.0 - - 10 - - - -
10/06:00pm 38.8 W 15 18 1006.8 - 0.0 - - 10 - - - -
10/05:30pm 40.5 WNW 14 19 1006.5 - 0.0 - - 10 - - - -
10/05:00pm 41.3 WNW 17 21 1006.2 - 0.0 - - 10 - - - -
10/04:30pm 43.1 WNW 13 19 1006.1 - 0.0 - - 10 - - - -
10/04:00pm 42.7 N 12 14 1006.4 - 0.0 - - 10 - - - -
10/03:30pm 42.8 NNE 10 13 1006.5 - 0.0 - - 10 - - - -
10/03:00pm 42.3 N 9 11 1006.6 R 0.0 Fine Mostly clear 30 - - - -
10/02:30pm 40.9 N 9 11 1007.0 - 0.0 - - 10 - - - -
10/02:00pm 39.7 NNE 9 12 1007.3 - 0.0 - - 10 - - - -
10/01:30pm 38.7 NNE 10 12 1007.5 - 0.0 - - 10 - - - -
10/01:00pm 38.1 NE 10 13 1007.7 - 0.0 - - 10 - - - -
10/12:30pm 37.0 NE 9 11 1007.9 - 0.0 - - 10 - - - -
10/12:00pm 37.7 NE 9 12 1008.0 F 0.0 Fine Mostly clear 30 - - - -
10/11:30am 36.1 NNE 11 13 1008.4 - 0.0 - - 10 - - - -
10/11:00am 37.3 N 12 14 1008.6 - 0.0 - - 10 - - - -
10/10:30am 35.9 N 11 14 1009.1 - 0.0 - - 10 - - - -
10/10:00am 35.7 ENE 9 12 1009.4 - 0.0 - - 10 - - - -
10/09:30am 37.6 ENE 5 9 1009.4 - 0.0 - - 10 - - - -
10/09:00am 36.3 S 4 7 1009.1 S 0.0 Fine Clear 30 - - - -
10/08:30am 34.6 SSW 5 8 1009.2 - 0.0 - - 10 - - - -
10/08:00am 33.3 SW 7 9 1009.1 - 0.0 - - 10 - - - -
10/07:30am 31.0 SW 5 8 1008.9 - 0.0 - - 10 - - - -
10/07:00am 27.6 SSW 2 6 1008.7 - 0.0 - - 10 - - - -
10/06:30am 25.2 SSW 6 10 1008.6 - 0.0 - - 10 - - - -
10/06:00am 25.3 SW 8 9 1008.1 R 0.0 Fine Mostly clear 30 - - - -
10/05:30am 26.4 SW 7 8 1008.0 - 0.0 - - 10 - - - -
10/05:00am 26.0 SSW 6 7 1007.8 - 0.0 - - 10 - - - -
10/04:30am 27.3 WSW 6 9 1007.6 - 0.0 - - 10 - - - -
10/04:00am 26.3 SSW 7 8 1007.8 - 0.0 - - 10 - - - -
10/03:30am 27.1 S 4 5 1007.8 - 0.0 - - 10 - - - -
10/03:00am 30.5 WNW 6 7 1007.4 - 0.0 - - 10 - - - -
10/02:30am 28.7 NW 5 7 1007.5 - 0.0 - - 10 - - - -
10/02:00am 29.6 W 8 9 1007.7 - 0.0 - - 10 - - - -
10/01:30am 27.2 NNW 8 9 1008.1 - 0.0 - - 10 - - - -
10/01:00am 29.6 NW 7 9 1008.2 - 0.0 - - 10 - - - -
10/12:30am 30.0 WSW 8 12 1008.2 - 0.0 - - 10 - - - -
10/12:00am 30.4 WSW 7 8 1008.5 - 0.0 - - 10 - - - -
 
Date/Time
WST
Temp

°C
Wind Pressure Rain
since 9am
mm
Weather Cloud Vis
km
Sea
Height
m
Swell
Dir
 
Speed
knots
Gust
knots
hPa Trend Height
m
Period
s
Dir
09/11:30pm 30.2 NW 4 6 1008.8 - 0.0 - - 10 - - - -
09/11:00pm 30.0 W 7 10 1009.0 - 0.0 - - 10 - - - -
09/10:30pm 28.9 SSW 11 15 1009.0 - 0.0 - - 10 - - - -
09/10:00pm 29.4 SSW 13 16 1009.0 - 0.0 - - 10 - - - -
09/09:30pm 29.7 S 11 14 1009.0 - 0.0 - - 10 - - - -
09/09:00pm 30.6 SSW 9 11 1008.4 - 0.0 - - 10 - - - -
09/08:30pm 32.4 SW 9 11 1008.1 - 0.0 - - 10 - - - -
09/08:00pm 33.4 SW 9 11 1007.9 - 0.0 - - 10 - - - -
09/07:30pm 34.8 SW 12 15 1007.6 - 0.0 - - 10 - - - -
09/07:00pm 36.1 W 12 16 1007.3 - 0.0 - - 10 - - - -
09/06:30pm 38.6 W 13 16 1006.9 - 0.0 - - 10 - - - -
09/06:00pm 39.3 W 15 18 1006.7 - 0.0 - - 10 - - - -
09/05:30pm 40.4 W 13 17 1006.6 - 0.0 - - 10 - - - -
09/05:00pm 42.2 WNW 12 15 1006.3 - 0.0 - - 10 - - - -
09/04:30pm 43.1 N 11 13 1006.2 - 0.0 - - 10 - - - -
09/04:00pm 43.7 NNE 9 11 1006.4 - 0.0 - - 10 - - - -
09/03:30pm 44.3 NNE 8 11 1006.7 - 0.0 - - 10 - - - -
09/03:00pm 44.3 NW 5 12 1007.0 S 0.0 Fine Mostly clear 30 - - - -
09/02:30pm 42.6 N 7 10 1007.6 - 0.0 - - 10 - - - -
09/02:00pm 38.6 NNE 10 12 1008.2 - 0.0 - - 10 - - - -
09/01:30pm 38.7 ENE 9 11 1008.4 - 0.0 - - 10 - - - -
09/01:00pm 39.2 ENE 7 8 1008.5 - 0.0 - - 10 - - - -
09/12:30pm 38.5 E 8 9 1008.8 - 0.0 - - 10 - - - -
09/12:00pm 37.6 E 9 11 1008.9 F 0.0 Fine Mostly clear 30 - - - -
09/11:30am 36.9 E 10 12 1009.2 - 0.0 - - 10 - - - -
09/11:00am 37.2 E 11 12 1009.5 - 0.0 - - 10 - - - -
09/10:30am 36.0 ESE 7 11 1009.9 - 0.0 - - 10 - - - -
09/10:00am 35.5 SSE 7 11 1010.2 - 0.0 - - 10 - - - -
09/09:30am 34.1 S 5 9 1010.4 - 0.0 - - 10 - - - -
09/09:00am 32.6 S 7 11 1010.4 R 0.0 Fine Mostly clear 30 - - - -
09/08:30am 31.9 SSW 9 12 1010.1 - 0.0 - Mostly clear 10 - - - -
09/08:00am 29.4 S 8 10 1010.3 - 0.0 - - 10 - - - -
09/07:30am 27.4 SE 8 10 1010.3 - 0.0 - - 10 - - - -
09/07:00am 25.6 SE 3 5 1009.4 - 0.0 - - 10 - - - -
09/06:30am 24.7 WSW 6 8 1009.0 - 0.0 - - 10 - - - -
09/06:00am 23.0 WSW 7 9 1008.8 R 0.0 Fine Mostly clear 30 - - - -
09/05:30am 22.2 WSW 8 10 1008.8 - 0.0 - - 10 - - - -
09/05:00am 22.2 SSW 6 8 1008.8 - 0.0 - - 10 - - - -
09/04:30am 23.4 CALM 0 5 1008.8 - 0.0 - - 10 - - - -
09/04:00am 24.7 NNW 5 7 1008.2 - 0.0 - - 10 - - - -
09/03:30am 26.8 NW 5 8 1008.2 - 0.0 - - 10 - - - -
09/03:00am 25.9 NNW 4 5 1008.0 - 0.0 - - 10 - - - -
09/02:30am 26.0 SSW 4 7 1008.4 - 0.0 - - 10 - - - -
09/02:00am 27.3 WSW 8 9 1008.4 - 0.0 - - 10 - - - -
09/01:30am 27.3 WSW 8 10 1008.8 - 0.0 - - 10 - - - -
09/01:00am 27.5 WSW 9 11 1009.1 - 0.0 - - 10 - - - -
09/12:30am 27.4 WSW 8 11 1009.6 - 0.0 - - 10 - - - -
09/12:00am 27.9 SW 10 12 1009.7 - 0.0 - - 10 - - - -
 
Date/Time
WST
Temp

°C
Wind Pressure Rain
since 9am
mm
Weather Cloud Vis
km
Sea
Height
m
Swell
Dir
 
Speed
knots
Gust
knots
hPa Trend Height
m
Period
s
Dir
08/11:30pm 27.4 SW 9 11 1010.1 - 0.0 - - 10 - - - -

Other Formats:

Comma delimited format used in spreadsheet applications
http://www.bom.gov.au/fwo/IDW60701/IDW60701.94302.axf

JavaScript Object Notation format (JSON) in row-major order
http://www.bom.gov.au/fwo/IDW60701/IDW60701.94302.json